createdAt,value
2019-06-26T00:01:58.733Z,92.80
2019-06-26T00:05:02.211Z,93.00
2019-06-26T00:08:05.825Z,92.80
2019-06-26T00:11:09.382Z,92.90
2019-06-26T00:14:12.833Z,93.20
2019-06-26T00:17:16.320Z,93.20
2019-06-26T00:20:20.841Z,93.30
2019-06-26T00:23:24.381Z,93.50
2019-06-26T00:26:27.834Z,93.60
2019-06-26T00:29:31.578Z,93.70
2019-06-26T00:32:35.149Z,93.80
2019-06-26T00:35:38.649Z,94.10
2019-06-26T00:38:42.205Z,94.30
2019-06-26T00:41:45.666Z,94.20
2019-06-26T00:44:49.149Z,94.30
2019-06-26T00:47:52.604Z,94.40
2019-06-26T00:50:56.087Z,94.80
2019-06-26T00:53:59.660Z,95.00
2019-06-26T00:57:03.180Z,95.20
2019-06-26T01:00:09.546Z,95.10
2019-06-26T01:03:13.145Z,95.50
2019-06-26T01:06:34.662Z,95.50
2019-06-26T01:09:38.256Z,95.90
2019-06-26T01:12:41.740Z,95.80
2019-06-26T01:15:45.235Z,95.90
2019-06-26T01:18:48.756Z,96.10
2019-06-26T01:21:52.241Z,96.10
2019-06-26T01:24:55.750Z,96.30
2019-06-26T01:27:59.257Z,96.30
2019-06-26T01:31:02.740Z,96.60
2019-06-26T01:34:06.249Z,96.30
2019-06-26T01:37:09.902Z,96.30
2019-06-26T01:40:13.693Z,96.50
2019-06-26T01:43:17.149Z,96.70
2019-06-26T01:46:20.696Z,96.90
2019-06-26T01:49:24.149Z,96.90
2019-06-26T01:52:27.628Z,97.10
2019-06-26T01:55:31.078Z,97.20
2019-06-26T01:58:34.564Z,97.30
2019-06-26T02:01:38.049Z,97.60
2019-06-26T02:04:41.532Z,97.70
2019-06-26T02:07:45.092Z,97.80
2019-06-26T02:10:48.579Z,97.90
2019-06-26T02:13:52.135Z,98.10
2019-06-26T02:16:55.586Z,98.20
2019-06-26T02:19:59.069Z,98.50
2019-06-26T02:23:02.557Z,98.70
2019-06-26T02:26:06.114Z,98.70
2019-06-26T02:29:09.566Z,98.90
2019-06-26T02:32:13.123Z,99.00
2019-06-26T02:35:17.626Z,99.20
2019-06-26T02:38:21.136Z,99.40
2019-06-26T02:41:24.770Z,99.60
2019-06-26T02:44:28.258Z,99.70
2019-06-26T02:47:31.776Z,99.90
2019-06-26T02:50:35.256Z,99.90
2019-06-26T02:53:38.817Z,99.90
2019-06-26T02:56:42.373Z,99.90
2019-06-26T02:59:45.884Z,99.90
2019-06-26T03:02:49.450Z,99.90
2019-06-26T03:05:53.005Z,99.90
2019-06-26T03:08:56.461Z,99.90
2019-06-26T03:12:00.013Z,99.90
2019-06-26T03:15:09.510Z,99.90
2019-06-26T03:18:13.245Z,99.90
2019-06-26T03:21:26.033Z,99.90
2019-06-26T03:24:29.525Z,99.90
2019-06-26T03:27:33.005Z,99.90
2019-06-26T03:30:36.455Z,99.90
2019-06-26T03:33:40.009Z,99.90
2019-06-26T03:36:43.465Z,99.90
2019-06-26T03:39:46.966Z,99.90
2019-06-26T03:42:50.586Z,99.90
2019-06-26T03:45:54.040Z,99.90
2019-06-26T03:48:57.520Z,99.90
2019-06-26T03:52:01.087Z,99.90
2019-06-26T03:55:06.348Z,99.90
2019-06-26T03:58:09.937Z,99.90
2019-06-26T04:01:13.432Z,99.90
2019-06-26T04:04:16.985Z,99.90
2019-06-26T04:07:20.556Z,99.90
2019-06-26T04:10:24.053Z,99.90
2019-06-26T04:13:27.599Z,99.90
2019-06-26T04:16:31.058Z,99.90
2019-06-26T04:19:34.632Z,99.90
2019-06-26T04:22:38.171Z,99.90
2019-06-26T04:25:41.660Z,99.90
2019-06-26T04:28:45.111Z,99.90
2019-06-26T04:31:48.583Z,99.90
2019-06-26T04:34:54.503Z,99.90
2019-06-26T04:37:57.260Z,99.90
2019-06-26T04:41:00.712Z,99.90
2019-06-26T04:44:04.579Z,99.90
2019-06-26T04:47:08.100Z,99.90
2019-06-26T04:50:11.919Z,99.90
2019-06-26T04:53:15.521Z,99.90
2019-06-26T04:56:19.033Z,99.90
2019-06-26T04:59:22.521Z,99.90
2019-06-26T05:02:26.019Z,99.90
2019-06-26T05:05:39.215Z,99.90
2019-06-26T05:08:34.665Z,99.90
2019-06-26T05:11:38.149Z,99.90
2019-06-26T05:14:41.616Z,97.30
2019-06-26T05:17:45.170Z,94.60
2019-06-26T05:20:48.765Z,91.30
2019-06-26T05:23:52.324Z,89.60
2019-06-26T05:26:55.781Z,85.60
2019-06-26T05:29:59.271Z,82.90
2019-06-26T05:33:02.715Z,82.90
2019-06-26T05:36:06.328Z,83.20
2019-06-26T05:39:09.960Z,83.00
2019-06-26T05:42:13.596Z,81.60
2019-06-26T05:45:17.824Z,81.20
2019-06-26T05:48:21.300Z,80.50
2019-06-26T05:51:24.844Z,78.00
2019-06-26T05:54:28.406Z,76.50
2019-06-26T05:57:32.019Z,74.50
2019-06-26T06:00:35.512Z,72.20
2019-06-26T06:03:39.162Z,71.00
2019-06-26T06:06:42.765Z,70.00
2019-06-26T06:09:46.369Z,68.10
2019-06-26T06:12:49.893Z,68.90
2019-06-26T06:15:53.372Z,67.60
2019-06-26T06:18:56.924Z,65.90
2019-06-26T06:22:00.371Z,64.50
2019-06-26T06:25:04.615Z,63.20
2019-06-26T06:28:08.138Z,63.00
2019-06-26T06:31:11.618Z,60.90
2019-06-26T06:34:15.186Z,61.70
2019-06-26T06:37:18.697Z,62.30
2019-06-26T06:40:22.382Z,60.90
2019-06-26T06:43:25.882Z,60.20
2019-06-26T06:46:29.329Z,60.40
2019-06-26T06:49:32.815Z,60.20
2019-06-26T06:52:36.338Z,60.10
2019-06-26T06:55:39.893Z,59.70
2019-06-26T06:58:43.352Z,59.70
2019-06-26T07:01:46.970Z,59.70
2019-06-26T07:04:50.463Z,59.40
2019-06-26T07:07:53.988Z,59.40
2019-06-26T07:10:57.545Z,59.90
2019-06-26T07:14:02.722Z,60.20
2019-06-26T07:17:19.490Z,60.10
2019-06-26T07:20:12.003Z,61.50
2019-06-26T07:23:15.473Z,60.60
2019-06-26T07:26:18.959Z,60.40
2019-06-26T07:29:22.568Z,60.50
2019-06-26T07:32:26.052Z,60.50
2019-06-26T07:35:29.534Z,59.40
2019-06-26T07:38:32.979Z,59.20
2019-06-26T07:41:36.472Z,59.10
2019-06-26T07:44:39.939Z,58.80
2019-06-26T07:47:44.326Z,59.30
2019-06-26T07:50:47.956Z,60.10
2019-06-26T07:53:51.512Z,59.70
2019-06-26T07:56:55.019Z,59.00
2019-06-26T07:59:58.503Z,59.70
2019-06-26T08:03:04.473Z,58.90
2019-06-26T08:06:07.170Z,58.90
2019-06-26T08:09:10.705Z,59.20
2019-06-26T08:12:14.175Z,57.30
2019-06-26T08:15:18.615Z,56.50
2019-06-26T08:18:22.068Z,57.10
2019-06-26T08:21:25.662Z,57.60
2019-06-26T08:24:29.159Z,57.50
2019-06-26T08:27:32.680Z,56.90
2019-06-26T08:30:36.165Z,56.20
2019-06-26T08:33:39.647Z,57.40
2019-06-26T08:36:43.125Z,59.20
2019-06-26T08:39:46.579Z,59.10
2019-06-26T08:42:50.084Z,58.60
2019-06-26T08:45:53.612Z,60.30
2019-06-26T08:48:57.113Z,59.30
2019-06-26T08:52:00.815Z,58.70
2019-06-26T08:55:08.365Z,60.00
2019-06-26T08:58:11.817Z,60.10
2019-06-26T09:01:15.300Z,61.50
2019-06-26T09:04:18.788Z,59.80
2019-06-26T09:07:22.303Z,61.00
2019-06-26T09:10:25.872Z,60.60
2019-06-26T09:13:29.366Z,61.30
2019-06-26T09:16:32.867Z,60.80
2019-06-26T09:19:36.324Z,62.00
2019-06-26T09:22:39.817Z,62.70
2019-06-26T09:25:43.271Z,63.10
2019-06-26T09:28:46.769Z,65.00
2019-06-26T09:31:50.225Z,63.90
2019-06-26T09:34:53.704Z,65.10
2019-06-26T09:37:57.204Z,65.30
2019-06-26T09:41:00.670Z,66.50
2019-06-26T09:44:04.160Z,67.80
2019-06-26T09:47:07.676Z,70.40
2019-06-26T09:50:12.213Z,72.70
2019-06-26T09:53:15.679Z,72.60
2019-06-26T09:56:19.151Z,74.30
2019-06-26T09:59:22.614Z,75.50
2019-06-26T10:02:26.089Z,77.20
2019-06-26T10:05:29.537Z,77.00
2019-06-26T10:08:33.107Z,77.30
2019-06-26T10:11:36.716Z,78.90
2019-06-26T10:14:47.132Z,78.60
2019-06-26T10:17:45.456Z,78.40
2019-06-26T10:20:48.958Z,77.90
2019-06-26T10:23:52.476Z,78.40
2019-06-26T10:26:55.975Z,78.40
2019-06-26T10:29:59.498Z,78.60
2019-06-26T10:33:03.008Z,79.10
2019-06-26T10:36:06.538Z,78.80
2019-06-26T10:39:10.152Z,79.00
2019-06-26T10:42:13.676Z,78.10
2019-06-26T10:45:17.468Z,78.40
2019-06-26T10:48:21.022Z,77.90
2019-06-26T10:51:24.480Z,77.90
2019-06-26T10:54:27.984Z,77.70
2019-06-26T10:57:31.484Z,78.30
2019-06-26T11:00:35.416Z,77.90
2019-06-26T11:03:38.874Z,77.70
2019-06-26T11:06:42.432Z,77.80
2019-06-26T11:09:45.912Z,78.40
2019-06-26T11:12:49.435Z,78.70
2019-06-26T11:15:52.924Z,77.40
2019-06-26T11:19:00.012Z,79.70
2019-06-26T11:22:03.620Z,79.90
2019-06-26T11:25:07.849Z,78.30
2019-06-26T11:28:11.296Z,78.10
2019-06-26T11:31:14.791Z,78.30
2019-06-26T11:34:18.244Z,77.50
2019-06-26T11:37:23.106Z,77.80
2019-06-26T11:40:27.306Z,78.20
2019-06-26T11:43:30.875Z,79.80
2019-06-26T11:46:36.935Z,80.60
2019-06-26T11:49:39.754Z,82.40
2019-06-26T11:52:43.273Z,81.00
2019-06-26T11:55:46.757Z,81.60
2019-06-26T11:58:50.247Z,79.60
2019-06-26T12:01:53.736Z,79.90
2019-06-26T12:04:57.302Z,80.70
2019-06-26T12:08:00.828Z,80.00
2019-06-26T12:11:04.373Z,79.80
2019-06-26T12:14:07.856Z,81.10
2019-06-26T12:17:11.412Z,79.80
2019-06-26T12:20:19.162Z,80.20
2019-06-26T12:23:21.016Z,82.00
2019-06-26T12:26:24.504Z,82.40
2019-06-26T12:29:27.982Z,83.30
2019-06-26T12:32:41.331Z,82.10
2019-06-26T12:35:36.652Z,82.20
2019-06-26T12:38:40.109Z,82.20
2019-06-26T12:41:43.594Z,82.50
2019-06-26T12:44:47.120Z,83.00
2019-06-26T12:47:50.612Z,83.60
2019-06-26T12:50:54.214Z,82.10
2019-06-26T12:53:58.616Z,82.00
2019-06-26T12:57:02.203Z,81.90
2019-06-26T13:00:08.509Z,82.10
2019-06-26T13:03:11.961Z,81.90
2019-06-26T13:06:15.447Z,81.70
2019-06-26T13:09:18.938Z,82.40
2019-06-26T13:12:22.367Z,83.40
2019-06-26T13:15:25.838Z,83.30
2019-06-26T13:18:29.347Z,81.00
2019-06-26T13:21:32.862Z,79.70
2019-06-26T13:24:36.294Z,81.00
2019-06-26T13:27:39.737Z,82.80
2019-06-26T13:30:43.204Z,82.90
2019-06-26T13:33:46.654Z,82.40
2019-06-26T13:36:50.116Z,80.70
2019-06-26T13:39:53.553Z,81.60
2019-06-26T13:42:57.001Z,81.40
2019-06-26T13:46:00.471Z,82.60
2019-06-26T13:49:03.984Z,83.20
2019-06-26T13:52:07.443Z,82.80
2019-06-26T13:55:11.007Z,81.30
2019-06-26T13:58:14.479Z,81.60
2019-06-26T14:01:17.902Z,80.10
2019-06-26T14:04:21.363Z,80.40
2019-06-26T14:07:24.790Z,81.30
2019-06-26T14:10:28.243Z,81.40
2019-06-26T14:13:31.667Z,81.80
2019-06-26T14:16:35.143Z,81.60
2019-06-26T14:19:38.603Z,80.20
2019-06-26T14:22:42.070Z,79.90
2019-06-26T14:25:45.501Z,79.40
2019-06-26T14:28:48.946Z,79.10
2019-06-26T14:31:52.374Z,81.70
2019-06-26T14:34:55.831Z,81.30
2019-06-26T14:37:59.278Z,81.00
2019-06-26T14:41:02.786Z,80.00
2019-06-26T14:44:06.251Z,81.20
2019-06-26T14:47:09.719Z,82.20
2019-06-26T14:50:13.589Z,82.50
2019-06-26T14:53:17.508Z,81.60
2019-06-26T14:56:20.944Z,81.20
2019-06-26T14:59:24.405Z,80.20
2019-06-26T15:02:31.554Z,79.90
2019-06-26T15:05:33.019Z,79.00
2019-06-26T15:08:36.466Z,78.40
2019-06-26T15:11:40.030Z,78.50
2019-06-26T15:14:43.539Z,79.00
2019-06-26T15:17:47.001Z,79.10
2019-06-26T15:20:50.432Z,79.20
2019-06-26T15:23:53.903Z,77.70
2019-06-26T15:26:57.624Z,78.10
2019-06-26T15:30:01.108Z,78.10
2019-06-26T15:33:04.541Z,77.20
2019-06-26T15:36:08.001Z,77.70
2019-06-26T15:39:11.439Z,77.50
2019-06-26T15:42:14.905Z,78.10
2019-06-26T15:45:20.838Z,77.70
2019-06-26T15:48:23.951Z,77.90
2019-06-26T15:51:27.403Z,78.20
2019-06-26T15:54:30.855Z,78.40
2019-06-26T15:57:34.398Z,78.00
2019-06-26T16:00:37.831Z,77.70
2019-06-26T16:03:41.298Z,76.00
2019-06-26T16:06:44.741Z,76.70
2019-06-26T16:09:48.216Z,76.60
2019-06-26T16:12:51.640Z,76.00
2019-06-26T16:15:55.087Z,75.70
2019-06-26T16:19:00.187Z,76.50
2019-06-26T16:22:03.632Z,76.30
2019-06-26T16:25:07.837Z,75.80
2019-06-26T16:28:11.259Z,75.90
2019-06-26T16:31:14.709Z,75.90
2019-06-26T16:34:18.136Z,75.50
2019-06-26T16:37:21.637Z,76.40
2019-06-26T16:40:25.084Z,76.60
2019-06-26T16:43:28.519Z,76.40
2019-06-26T16:46:32.130Z,76.70
2019-06-26T16:49:35.699Z,77.30
2019-06-26T16:52:49.140Z,77.00
2019-06-26T16:55:44.417Z,77.80
2019-06-26T16:58:47.965Z,80.60
2019-06-26T17:01:51.692Z,84.10
2019-06-26T17:04:55.216Z,86.00
2019-06-26T17:07:58.978Z,87.50
2019-06-26T17:11:02.551Z,87.90
2019-06-26T17:14:06.191Z,89.10
2019-06-26T17:17:09.724Z,89.20
2019-06-26T17:20:13.624Z,89.70
2019-06-26T17:23:17.195Z,90.20
2019-06-26T17:26:20.660Z,90.50
2019-06-26T17:29:24.140Z,90.90
2019-06-26T17:32:27.643Z,91.10
2019-06-26T17:35:31.166Z,91.30
2019-06-26T17:38:34.935Z,90.80
2019-06-26T17:41:38.424Z,91.10
2019-06-26T17:44:41.880Z,91.10
2019-06-26T17:47:45.361Z,91.10
2019-06-26T17:50:48.824Z,91.20
2019-06-26T17:53:52.314Z,91.10
2019-06-26T17:56:55.875Z,91.30
2019-06-26T17:59:59.370Z,91.60
2019-06-26T18:03:03.006Z,91.70
2019-06-26T18:06:06.573Z,91.60
2019-06-26T18:09:12.374Z,91.90
2019-06-26T18:12:15.325Z,92.20
2019-06-26T18:15:19.344Z,92.60
2019-06-26T18:18:22.873Z,92.90
2019-06-26T18:21:26.437Z,93.10
2019-06-26T18:24:29.984Z,93.60
2019-06-26T18:27:33.541Z,94.00
2019-06-26T18:30:37.022Z,94.30
2019-06-26T18:33:44.055Z,94.90
2019-06-26T18:36:45.780Z,95.60
2019-06-26T18:39:49.297Z,96.40
2019-06-26T18:42:52.848Z,97.20
2019-06-26T18:45:56.429Z,98.10
2019-06-26T18:48:59.886Z,98.60
2019-06-26T18:52:03.384Z,98.90
2019-06-26T18:55:09.989Z,99.20
2019-06-26T18:58:13.529Z,99.50
2019-06-26T19:01:17.060Z,99.70
2019-06-26T19:04:20.552Z,99.90
2019-06-26T19:07:24.280Z,99.90
2019-06-26T19:10:27.768Z,99.90
2019-06-26T19:13:31.275Z,99.90
2019-06-26T19:16:36.448Z,99.90
2019-06-26T19:19:40.174Z,99.90
2019-06-26T19:22:47.244Z,99.90
2019-06-26T19:25:48.857Z,99.90
2019-06-26T19:28:52.381Z,99.90
2019-06-26T19:31:55.873Z,99.90
2019-06-26T19:35:07.983Z,99.90
2019-06-26T19:38:04.704Z,99.90
2019-06-26T19:41:08.759Z,99.90
2019-06-26T19:44:28.284Z,99.90
2019-06-26T19:47:32.205Z,99.90
2019-06-26T19:50:36.510Z,99.90
2019-06-26T19:53:39.973Z,99.90
2019-06-26T19:56:43.604Z,99.90
2019-06-26T19:59:47.245Z,99.90
2019-06-26T20:02:50.805Z,99.90
2019-06-26T20:05:54.357Z,99.90
2019-06-26T20:08:57.867Z,99.90
2019-06-26T20:12:01.433Z,99.90
2019-06-26T20:15:10.540Z,99.90
2019-06-26T20:18:29.657Z,99.90
2019-06-26T20:21:33.264Z,99.90
2019-06-26T20:24:43.867Z,99.90
2019-06-26T20:27:42.125Z,99.90
2019-06-26T20:30:45.778Z,99.90
2019-06-26T20:33:49.337Z,99.90
2019-06-26T20:36:52.945Z,99.90
2019-06-26T20:39:56.540Z,99.90
2019-06-26T20:43:00.089Z,99.90
2019-06-26T20:46:03.551Z,99.90
2019-06-26T20:49:07.087Z,99.90
2019-06-26T20:52:10.576Z,99.90
2019-06-26T20:55:14.180Z,99.90
2019-06-26T20:58:17.811Z,99.90
2019-06-26T21:01:21.265Z,99.90
2019-06-26T21:04:24.746Z,99.90
2019-06-26T21:07:28.250Z,99.90
2019-06-26T21:10:31.701Z,99.90
2019-06-26T21:13:35.201Z,99.90
2019-06-26T21:16:38.657Z,99.90
2019-06-26T21:19:42.138Z,99.90
2019-06-26T21:22:45.693Z,99.90
2019-06-26T21:25:49.347Z,99.90
2019-06-26T21:28:53.104Z,99.90
2019-06-26T21:31:56.661Z,99.90
2019-06-26T21:35:00.164Z,99.90
2019-06-26T21:38:03.616Z,99.90
2019-06-26T21:41:07.105Z,99.90
2019-06-26T21:44:10.602Z,99.90
2019-06-26T21:47:14.072Z,99.90
2019-06-26T21:50:17.624Z,99.90
2019-06-26T21:53:21.077Z,99.80
2019-06-26T21:56:24.565Z,99.30
2019-06-26T21:59:28.098Z,98.30
2019-06-26T22:02:31.730Z,98.60
2019-06-26T22:05:35.323Z,98.10
2019-06-26T22:08:38.945Z,98.60
2019-06-26T22:11:42.393Z,98.20
2019-06-26T22:14:45.966Z,98.40
2019-06-26T22:17:49.489Z,98.60
2019-06-26T22:20:52.976Z,99.10
2019-06-26T22:23:56.501Z,99.50
2019-06-26T22:27:00.180Z,99.70
2019-06-26T22:30:05.645Z,99.70
2019-06-26T22:33:09.220Z,99.90
2019-06-26T22:36:12.788Z,99.90
2019-06-26T22:39:16.313Z,99.90
2019-06-26T22:42:19.794Z,99.90
2019-06-26T22:45:23.316Z,99.90
2019-06-26T22:48:26.813Z,99.90
2019-06-26T22:51:30.275Z,99.90
2019-06-26T22:54:33.752Z,99.90
2019-06-26T22:57:37.210Z,99.90
2019-06-26T23:00:40.699Z,99.90
2019-06-26T23:03:44.172Z,99.90
2019-06-26T23:06:47.712Z,99.90
2019-06-26T23:09:51.208Z,99.90
2019-06-26T23:12:54.661Z,99.90
2019-06-26T23:15:58.159Z,99.90
2019-06-26T23:19:01.705Z,99.90
2019-06-26T23:22:05.625Z,99.90
2019-06-26T23:25:09.508Z,99.90
2019-06-26T23:28:12.986Z,99.90
2019-06-26T23:31:16.513Z,99.90
2019-06-26T23:34:20.071Z,99.90
2019-06-26T23:37:23.625Z,99.90
2019-06-26T23:40:27.085Z,99.90
2019-06-26T23:43:30.572Z,99.90
2019-06-26T23:46:34.029Z,99.90
2019-06-26T23:49:37.511Z,99.90
2019-06-26T23:52:40.994Z,99.90
2019-06-26T23:55:44.477Z,99.90
2019-06-26T23:58:48.112Z,99.90
